createdAt,value
2017-05-17T00:00:33.297Z,1028.80
2017-05-17T00:01:35.114Z,1028.77
2017-05-17T00:02:37.433Z,1028.75
2017-05-17T00:03:39.279Z,1028.72
2017-05-17T00:04:41.125Z,1028.75
2017-05-17T00:05:42.971Z,1028.73
2017-05-17T00:06:44.813Z,1028.71
2017-05-17T00:07:46.660Z,1028.68
2017-05-17T00:08:48.502Z,1028.70
2017-05-17T00:09:50.350Z,1028.72
2017-05-17T00:10:52.193Z,1028.68
2017-05-17T00:11:54.043Z,1028.68
2017-05-17T00:12:55.887Z,1028.68
2017-05-17T00:13:57.733Z,1028.68
2017-05-17T00:14:59.581Z,1028.68
2017-05-17T00:16:01.426Z,1028.68
2017-05-17T00:17:03.264Z,1028.64
2017-05-17T00:18:05.138Z,1028.63
2017-05-17T00:19:06.988Z,1028.66
2017-05-17T00:20:08.832Z,1028.64
2017-05-17T00:21:10.678Z,1028.66
2017-05-17T00:22:12.518Z,1028.66
2017-05-17T00:23:14.740Z,1028.60
2017-05-17T00:24:16.561Z,1028.61
2017-05-17T00:25:18.402Z,1028.63
2017-05-17T00:26:20.249Z,1028.61
2017-05-17T00:27:22.095Z,1028.62
2017-05-17T00:28:23.940Z,1028.65
2017-05-17T00:29:25.755Z,1028.63
2017-05-17T00:30:27.602Z,1028.60
2017-05-17T00:31:29.420Z,1028.59
2017-05-17T00:32:31.272Z,1028.59
2017-05-17T00:33:33.315Z,1028.57
2017-05-17T00:34:35.154Z,1028.58
2017-05-17T00:35:36.973Z,1028.57
2017-05-17T00:36:38.820Z,1028.57
2017-05-17T00:37:40.663Z,1028.57
2017-05-17T00:38:42.505Z,1028.53
2017-05-17T00:39:44.329Z,1028.55
2017-05-17T00:40:46.166Z,1028.54
2017-05-17T00:41:47.991Z,1028.52
2017-05-17T00:42:49.834Z,1028.55
2017-05-17T00:43:51.986Z,1028.52
2017-05-17T00:44:53.828Z,1028.48
2017-05-17T00:45:55.647Z,1028.49
2017-05-17T00:46:57.481Z,1028.51
2017-05-17T00:47:59.303Z,1028.47
2017-05-17T00:49:01.171Z,1028.51
2017-05-17T00:50:02.987Z,1028.50
2017-05-17T00:51:04.810Z,1028.46
2017-05-17T00:52:06.662Z,1028.46
2017-05-17T00:53:08.503Z,1028.48
2017-05-17T00:54:10.696Z,1028.45
2017-05-17T00:55:12.538Z,1028.46
2017-05-17T00:56:14.383Z,1028.43
2017-05-17T00:57:16.207Z,1028.46
2017-05-17T00:58:18.048Z,1028.47
2017-05-17T00:59:19.994Z,1028.45
2017-05-17T01:00:21.844Z,1028.45
2017-05-17T01:01:23.688Z,1028.44
2017-05-17T01:02:25.533Z,1028.47
2017-05-17T01:03:27.358Z,1028.46
2017-05-17T01:04:40.608Z,1028.48
2017-05-17T01:05:42.432Z,1028.45
2017-05-17T01:06:44.274Z,1028.45
2017-05-17T01:07:46.111Z,1028.47
2017-05-17T01:08:47.932Z,1028.47
2017-05-17T01:09:49.776Z,1028.47
2017-05-17T01:10:51.616Z,1028.46
2017-05-17T01:11:53.431Z,1028.41
2017-05-17T01:12:55.253Z,1028.43
2017-05-17T01:13:57.066Z,1028.40
2017-05-17T01:14:59.284Z,1028.36
2017-05-17T01:16:01.106Z,1028.36
2017-05-17T01:17:02.949Z,1028.36
2017-05-17T01:18:04.770Z,1028.36
2017-05-17T01:19:06.616Z,1028.36
2017-05-17T01:20:08.530Z,1028.30
2017-05-17T01:21:10.346Z,1028.33
2017-05-17T01:22:12.191Z,1028.33
2017-05-17T01:23:14.040Z,1028.32
2017-05-17T01:24:15.877Z,1028.28
2017-05-17T01:25:17.946Z,1028.32
2017-05-17T01:26:19.787Z,1028.35
2017-05-17T01:27:21.630Z,1028.28
2017-05-17T01:28:23.450Z,1028.30
2017-05-17T01:29:25.290Z,1028.33
2017-05-17T01:30:27.159Z,1028.31
2017-05-17T01:31:28.976Z,1028.31
2017-05-17T01:32:30.819Z,1028.30
2017-05-17T01:33:32.637Z,1028.29
2017-05-17T01:34:34.480Z,1028.34
2017-05-17T01:35:36.721Z,1028.30
2017-05-17T01:36:38.562Z,1028.31
2017-05-17T01:37:40.387Z,1028.27
2017-05-17T01:38:42.228Z,1028.30
2017-05-17T01:39:44.043Z,1028.29
2017-05-17T01:40:45.985Z,1028.27
2017-05-17T01:41:47.827Z,1028.27
2017-05-17T01:42:49.669Z,1028.24
2017-05-17T01:43:51.508Z,1028.22
2017-05-17T01:44:53.362Z,1028.18
2017-05-17T01:45:55.601Z,1028.20
2017-05-17T01:46:57.425Z,1028.18
2017-05-17T01:47:59.270Z,1028.16
2017-05-17T01:49:01.110Z,1028.14
2017-05-17T01:50:02.957Z,1028.12
2017-05-17T01:51:04.824Z,1028.16
2017-05-17T01:52:06.665Z,1028.11
2017-05-17T01:53:08.508Z,1028.12
2017-05-17T01:54:10.353Z,1028.13
2017-05-17T01:55:12.194Z,1028.11
2017-05-17T01:56:14.386Z,1028.11
2017-05-17T01:57:16.234Z,1028.13
2017-05-17T01:58:18.070Z,1028.10
2017-05-17T01:59:19.919Z,1028.14
2017-05-17T02:00:21.734Z,1028.08
2017-05-17T02:01:23.653Z,1028.08
2017-05-17T02:02:25.471Z,1028.10
2017-05-17T02:03:27.310Z,1028.09
2017-05-17T02:04:29.132Z,1028.08
2017-05-17T02:05:30.977Z,1028.08
2017-05-17T02:06:33.022Z,1028.07
2017-05-17T02:07:34.865Z,1028.09
2017-05-17T02:08:36.704Z,1028.08
2017-05-17T02:09:38.523Z,1028.11
2017-05-17T02:10:40.341Z,1028.07
2017-05-17T02:11:42.186Z,1028.06
2017-05-17T02:12:44.027Z,1028.07
2017-05-17T02:13:45.877Z,1028.05
2017-05-17T02:14:47.690Z,1028.10
2017-05-17T02:15:49.536Z,1028.11
2017-05-17T02:16:51.678Z,1028.11
2017-05-17T02:17:53.516Z,1028.05
2017-05-17T02:18:55.339Z,1028.04
2017-05-17T02:19:57.178Z,1028.05
2017-05-17T02:20:59.019Z,1028.04
2017-05-17T02:22:00.965Z,1028.07
2017-05-17T02:23:02.810Z,1028.07
2017-05-17T02:24:04.652Z,1028.07
2017-05-17T02:25:06.489Z,1028.06
2017-05-17T02:26:08.312Z,1028.06
2017-05-17T02:27:10.553Z,1028.05
2017-05-17T02:28:12.373Z,1028.06
2017-05-17T02:29:14.217Z,1028.06
2017-05-17T02:30:16.058Z,1028.03
2017-05-17T02:31:17.879Z,1028.04
2017-05-17T02:32:19.714Z,1028.02
2017-05-17T02:33:21.532Z,1028.06
2017-05-17T02:34:23.350Z,1028.00
2017-05-17T02:35:25.186Z,1028.00
2017-05-17T02:36:27.028Z,1028.02
2017-05-17T02:37:29.042Z,1027.99
2017-05-17T02:38:30.888Z,1028.03
2017-05-17T02:39:32.732Z,1028.01
2017-05-17T02:40:34.578Z,1028.00
2017-05-17T02:41:36.417Z,1027.99
2017-05-17T02:42:38.387Z,1027.99
2017-05-17T02:43:40.231Z,1027.97
2017-05-17T02:44:42.073Z,1027.98
2017-05-17T02:45:43.915Z,1027.97
2017-05-17T02:46:45.759Z,1027.97
2017-05-17T02:47:48.005Z,1027.97
2017-05-17T02:48:49.854Z,1027.96
2017-05-17T02:49:51.700Z,1027.93
2017-05-17T02:50:53.537Z,1027.93
2017-05-17T02:51:55.382Z,1027.93
2017-05-17T02:52:57.250Z,1027.91
2017-05-17T02:53:59.096Z,1027.90
2017-05-17T02:55:00.940Z,1027.88
2017-05-17T02:56:02.758Z,1027.86
2017-05-17T02:57:04.577Z,1027.86
2017-05-17T02:58:06.719Z,1027.88
2017-05-17T02:59:08.539Z,1027.83
2017-05-17T03:00:10.389Z,1027.82
2017-05-17T03:01:12.229Z,1027.79
2017-05-17T03:02:14.073Z,1027.90
2017-05-17T03:03:15.994Z,1027.82
2017-05-17T03:04:17.844Z,1027.81
2017-05-17T03:05:19.685Z,1027.80
2017-05-17T03:06:21.531Z,1027.80
2017-05-17T03:07:23.358Z,1027.77
2017-05-17T03:08:25.601Z,1027.76
2017-05-17T03:09:27.420Z,1027.75
2017-05-17T03:10:29.273Z,1027.78
2017-05-17T03:11:31.123Z,1027.78
2017-05-17T03:12:32.969Z,1027.73
2017-05-17T03:13:34.811Z,1027.71
2017-05-17T03:14:36.659Z,1027.81
2017-05-17T03:15:38.507Z,1027.75
2017-05-17T03:16:40.330Z,1027.71
2017-05-17T03:17:42.178Z,1027.72
2017-05-17T03:18:44.373Z,1027.70
2017-05-17T03:19:46.190Z,1027.71
2017-05-17T03:20:48.014Z,1027.67
2017-05-17T03:21:49.860Z,1027.72
2017-05-17T03:22:51.698Z,1027.70
2017-05-17T03:23:53.621Z,1027.71
2017-05-17T03:24:55.466Z,1027.71
2017-05-17T03:25:57.287Z,1027.73
2017-05-17T03:26:59.116Z,1027.70
2017-05-17T03:28:00.949Z,1027.69
2017-05-17T03:29:03.192Z,1027.71
2017-05-17T03:30:04.999Z,1027.76
2017-05-17T03:31:06.837Z,1027.71
2017-05-17T03:32:08.667Z,1027.73
2017-05-17T03:33:10.512Z,1027.72
2017-05-17T03:34:12.385Z,1027.77
2017-05-17T03:35:14.228Z,1027.75
2017-05-17T03:36:16.077Z,1027.79
2017-05-17T03:37:17.901Z,1027.80
2017-05-17T03:38:19.757Z,1027.80
2017-05-17T03:39:21.798Z,1027.76
2017-05-17T03:40:23.635Z,1027.76
2017-05-17T03:41:25.479Z,1027.76
2017-05-17T03:42:27.330Z,1027.76
2017-05-17T03:43:29.179Z,1027.78
2017-05-17T03:44:31.130Z,1027.79
2017-05-17T03:45:32.977Z,1027.80
2017-05-17T03:46:34.803Z,1027.80
2017-05-17T03:47:36.649Z,1027.80
2017-05-17T03:48:38.475Z,1027.81
2017-05-17T03:49:40.603Z,1027.73
2017-05-17T03:50:42.451Z,1027.75
2017-05-17T03:51:44.305Z,1027.75
2017-05-17T03:52:46.148Z,1027.75
2017-05-17T03:53:47.977Z,1027.78
2017-05-17T03:54:49.822Z,1027.78
2017-05-17T03:55:51.647Z,1027.81
2017-05-17T03:56:53.462Z,1027.75
2017-05-17T03:57:55.325Z,1027.73
2017-05-17T03:58:57.149Z,1027.77
2017-05-17T03:59:59.364Z,1027.78
2017-05-17T04:01:01.192Z,1027.73
2017-05-17T04:02:03.041Z,1027.74
2017-05-17T04:03:04.869Z,1027.73
2017-05-17T04:04:06.720Z,1027.76
2017-05-17T04:05:08.560Z,1027.74
2017-05-17T04:06:10.392Z,1027.73
2017-05-17T04:07:12.237Z,1027.75
2017-05-17T04:08:14.085Z,1027.74
2017-05-17T04:09:15.910Z,1027.76
2017-05-17T04:10:17.758Z,1027.78
2017-05-17T04:11:19.607Z,1027.76
2017-05-17T04:12:21.455Z,1027.76
2017-05-17T04:13:23.303Z,1027.75
2017-05-17T04:14:25.136Z,1027.75
2017-05-17T04:15:27.358Z,1027.75
2017-05-17T04:16:29.185Z,1027.78
2017-05-17T04:17:31.007Z,1027.78
2017-05-17T04:18:32.858Z,1027.81
2017-05-17T04:19:34.708Z,1027.77
2017-05-17T04:20:36.628Z,1027.77
2017-05-17T04:21:38.465Z,1027.79
2017-05-17T04:22:40.269Z,1027.81
2017-05-17T04:23:42.098Z,1027.82
2017-05-17T04:24:43.922Z,1027.80
2017-05-17T04:25:46.068Z,1027.83
2017-05-17T04:26:47.891Z,1027.80
2017-05-17T04:27:49.716Z,1027.83
2017-05-17T04:28:51.540Z,1027.83
2017-05-17T04:29:53.367Z,1027.83
2017-05-17T04:30:55.417Z,1027.82
2017-05-17T04:31:57.263Z,1027.82
2017-05-17T04:32:59.092Z,1027.83
2017-05-17T04:34:00.939Z,1027.81
2017-05-17T04:35:02.763Z,1027.83
2017-05-17T04:36:04.719Z,1027.83
2017-05-17T04:37:06.539Z,1027.80
2017-05-17T04:38:08.362Z,1027.83
2017-05-17T04:39:10.192Z,1027.83
2017-05-17T04:40:12.037Z,1027.80
2017-05-17T04:41:14.062Z,1027.79
2017-05-17T04:42:15.887Z,1027.80
2017-05-17T04:43:17.736Z,1027.79
2017-05-17T04:44:19.586Z,1027.79
2017-05-17T04:45:21.438Z,1027.79
2017-05-17T04:46:23.315Z,1027.85
2017-05-17T04:47:25.164Z,1027.81
2017-05-17T04:48:26.987Z,1027.79
2017-05-17T04:49:28.811Z,1027.80
2017-05-17T04:50:30.640Z,1027.81
2017-05-17T04:51:32.513Z,1027.79
2017-05-17T04:52:34.369Z,1027.79
2017-05-17T04:53:36.189Z,1027.82
2017-05-17T04:54:38.015Z,1027.86
2017-05-17T04:55:39.847Z,1027.84
2017-05-17T04:56:41.799Z,1027.82
2017-05-17T04:57:43.629Z,1027.80
2017-05-17T04:58:45.457Z,1027.82
2017-05-17T04:59:47.311Z,1027.79
2017-05-17T05:00:49.139Z,1027.78
2017-05-17T05:01:51.012Z,1027.77
2017-05-17T05:02:52.876Z,1027.81
2017-05-17T05:03:54.721Z,1027.81
2017-05-17T05:04:56.556Z,1027.83
2017-05-17T05:05:58.410Z,1027.78
2017-05-17T05:07:00.260Z,1027.80
2017-05-17T05:08:02.119Z,1027.77
2017-05-17T05:09:03.976Z,1027.78
2017-05-17T05:10:05.824Z,1027.78
2017-05-17T05:11:07.658Z,1027.76
2017-05-17T05:12:09.617Z,1027.76
2017-05-17T05:13:11.468Z,1027.73
2017-05-17T05:14:13.319Z,1027.71
2017-05-17T05:15:15.149Z,1027.73
2017-05-17T05:16:16.979Z,1027.67
2017-05-17T05:17:19.052Z,1027.67
2017-05-17T05:18:20.879Z,1027.68
2017-05-17T05:19:22.733Z,1027.67
2017-05-17T05:20:24.593Z,1027.67
2017-05-17T05:21:26.447Z,1027.66
2017-05-17T05:22:28.327Z,1027.64
2017-05-17T05:23:30.146Z,1027.65
2017-05-17T05:24:31.974Z,1027.61
2017-05-17T05:25:33.830Z,1027.60
2017-05-17T05:26:35.651Z,1027.60
2017-05-17T05:27:37.530Z,1027.63
2017-05-17T05:28:39.360Z,1027.62
2017-05-17T05:29:41.217Z,1027.61
2017-05-17T05:30:43.067Z,1027.58
2017-05-17T05:31:44.919Z,1027.58
2017-05-17T05:32:46.871Z,1027.56
2017-05-17T05:33:48.724Z,1027.55
2017-05-17T05:34:50.548Z,1027.56
2017-05-17T05:35:52.369Z,1027.58
2017-05-17T05:36:54.201Z,1027.58
2017-05-17T05:37:56.053Z,1027.56
2017-05-17T05:38:57.883Z,1027.50
2017-05-17T05:39:59.713Z,1027.54
2017-05-17T05:41:01.568Z,1027.56
2017-05-17T05:42:03.387Z,1027.54
2017-05-17T05:43:05.415Z,1027.53
2017-05-17T05:44:07.272Z,1027.51
2017-05-17T05:45:09.119Z,1027.55
2017-05-17T05:46:10.946Z,1027.51
2017-05-17T05:47:12.801Z,1027.50
2017-05-17T05:48:14.645Z,1027.55
2017-05-17T05:49:16.503Z,1027.55
2017-05-17T05:50:18.328Z,1027.54
2017-05-17T05:51:20.153Z,1027.55
2017-05-17T05:52:21.986Z,1027.55
2017-05-17T05:53:23.901Z,1027.52
2017-05-17T05:54:25.732Z,1027.50
2017-05-17T05:55:27.557Z,1027.55
2017-05-17T05:56:29.411Z,1027.54
2017-05-17T05:57:31.263Z,1027.52
2017-05-17T05:58:33.111Z,1027.51
2017-05-17T05:59:34.939Z,1027.53
2017-05-17T06:00:36.794Z,1027.53
2017-05-17T06:01:38.645Z,1027.48
2017-05-17T06:02:40.494Z,1027.50
2017-05-17T06:03:42.522Z,1027.48
2017-05-17T06:04:44.377Z,1027.52
2017-05-17T06:05:46.225Z,1027.53
2017-05-17T06:06:48.051Z,1027.51
2017-05-17T06:07:49.904Z,1027.53
2017-05-17T06:08:51.757Z,1027.53
2017-05-17T06:09:53.606Z,1027.52
2017-05-17T06:10:55.457Z,1027.52
2017-05-17T06:11:57.280Z,1027.55
2017-05-17T06:12:59.128Z,1027.50
2017-05-17T06:14:01.161Z,1027.54
2017-05-17T06:15:03.009Z,1027.53
2017-05-17T06:16:04.833Z,1027.57
2017-05-17T06:17:06.681Z,1027.55
2017-05-17T06:18:08.509Z,1027.56
2017-05-17T06:19:10.358Z,1027.53
2017-05-17T06:20:12.184Z,1027.53
2017-05-17T06:21:14.011Z,1027.52
2017-05-17T06:22:15.842Z,1027.50
2017-05-17T06:23:17.689Z,1027.46
2017-05-17T06:24:19.941Z,1027.48
2017-05-17T06:25:21.800Z,1027.46
2017-05-17T06:26:23.627Z,1027.47
2017-05-17T06:27:25.474Z,1027.41
2017-05-17T06:28:27.326Z,1027.42
2017-05-17T06:29:29.149Z,1027.42
2017-05-17T06:30:31.000Z,1027.45
2017-05-17T06:31:32.856Z,1027.40
2017-05-17T06:32:34.706Z,1027.41
2017-05-17T06:33:36.553Z,1027.40
2017-05-17T06:34:38.879Z,1027.42
2017-05-17T06:35:40.709Z,1027.42
2017-05-17T06:36:42.565Z,1027.38
2017-05-17T06:37:44.415Z,1027.36
2017-05-17T06:38:46.259Z,1027.37
2017-05-17T06:39:48.113Z,1027.36
2017-05-17T06:40:49.944Z,1027.38
2017-05-17T06:41:51.793Z,1027.34
2017-05-17T06:42:53.626Z,1027.35
2017-05-17T06:43:55.473Z,1027.42
2017-05-17T06:44:57.322Z,1027.40
2017-05-17T06:45:59.141Z,1027.41
2017-05-17T06:47:00.981Z,1027.41
2017-05-17T06:48:02.818Z,1027.43
2017-05-17T06:49:04.648Z,1027.44
2017-05-17T06:50:06.522Z,1027.42
2017-05-17T06:51:08.379Z,1027.42
2017-05-17T06:52:10.221Z,1027.41
2017-05-17T06:53:12.059Z,1027.39
2017-05-17T06:54:13.903Z,1027.40
2017-05-17T06:55:16.033Z,1027.40
2017-05-17T06:56:17.882Z,1027.41
2017-05-17T06:57:19.706Z,1027.42
2017-05-17T06:58:21.529Z,1027.41
2017-05-17T06:59:23.364Z,1027.42
2017-05-17T07:00:25.264Z,1027.44
2017-05-17T07:01:27.115Z,1027.44
2017-05-17T07:02:28.944Z,1027.45
2017-05-17T07:03:30.773Z,1027.45
2017-05-17T07:04:32.622Z,1027.42
2017-05-17T07:05:34.673Z,1027.44
2017-05-17T07:06:36.497Z,1027.41
2017-05-17T07:07:38.326Z,1027.41
2017-05-17T07:08:40.145Z,1027.44
2017-05-17T07:09:41.975Z,1027.45
2017-05-17T07:10:43.834Z,1027.44
2017-05-17T07:11:45.656Z,1027.42
2017-05-17T07:12:47.484Z,1027.39
2017-05-17T07:13:49.303Z,1027.43
2017-05-17T07:14:51.134Z,1027.41
2017-05-17T07:15:53.182Z,1027.39
2017-05-17T07:16:55.032Z,1027.42
2017-05-17T07:17:56.888Z,1027.41
2017-05-17T07:18:58.738Z,1027.40
2017-05-17T07:20:00.562Z,1027.40
2017-05-17T07:21:02.491Z,1027.43
2017-05-17T07:22:04.319Z,1027.46
2017-05-17T07:23:06.175Z,1027.42
2017-05-17T07:24:08.015Z,1027.45
2017-05-17T07:25:09.850Z,1027.45
2017-05-17T07:26:11.701Z,1027.50
2017-05-17T07:27:13.531Z,1027.54
2017-05-17T07:28:15.360Z,1027.57
2017-05-17T07:29:17.211Z,1027.62
2017-05-17T07:30:19.073Z,1027.65
2017-05-17T07:31:21.125Z,1027.71
2017-05-17T07:32:22.977Z,1027.73
2017-05-17T07:33:24.826Z,1027.71
2017-05-17T07:34:26.694Z,1027.71
2017-05-17T07:35:28.544Z,1027.68
2017-05-17T07:36:30.497Z,1027.65
2017-05-17T07:37:32.348Z,1027.61
2017-05-17T07:38:34.209Z,1027.61
2017-05-17T07:39:36.062Z,1027.53
2017-05-17T07:40:37.919Z,1027.54
2017-05-17T07:41:39.781Z,1027.52
2017-05-17T07:42:41.603Z,1027.50
2017-05-17T07:43:43.459Z,1027.52
2017-05-17T07:44:45.314Z,1027.49
2017-05-17T07:45:47.140Z,1027.49
2017-05-17T07:46:49.222Z,1027.47
2017-05-17T07:47:51.080Z,1027.48
2017-05-17T07:48:52.937Z,1027.49
2017-05-17T07:49:54.788Z,1027.48
2017-05-17T07:50:56.639Z,1027.46
2017-05-17T07:51:58.529Z,1027.46
2017-05-17T07:53:00.386Z,1027.46
2017-05-17T07:54:02.243Z,1027.43
2017-05-17T07:55:04.097Z,1027.42
2017-05-17T07:56:05.958Z,1027.41
2017-05-17T07:57:08.016Z,1027.43
2017-05-17T07:58:09.872Z,1027.39
2017-05-17T07:59:11.733Z,1027.38
2017-05-17T08:00:13.587Z,1027.38
2017-05-17T08:01:15.412Z,1027.42
2017-05-17T08:02:17.319Z,1027.42
2017-05-17T08:03:19.180Z,1027.45
2017-05-17T08:04:21.038Z,1027.41
2017-05-17T08:05:22.890Z,1027.45
2017-05-17T08:06:24.748Z,1027.48
2017-05-17T08:07:27.054Z,1027.43
2017-05-17T08:08:28.886Z,1027.44
2017-05-17T08:09:30.713Z,1027.47
2017-05-17T08:10:32.545Z,1027.46
2017-05-17T08:11:34.408Z,1027.42
2017-05-17T08:12:36.256Z,1027.45
2017-05-17T08:13:38.093Z,1027.44
2017-05-17T08:14:39.923Z,1027.46
2017-05-17T08:15:41.775Z,1027.47
2017-05-17T08:16:43.609Z,1027.50
2017-05-17T08:17:45.813Z,1027.53
2017-05-17T08:18:47.643Z,1027.58
2017-05-17T08:19:49.505Z,1027.59
2017-05-17T08:20:51.358Z,1027.60
2017-05-17T08:21:53.219Z,1027.61
2017-05-17T08:22:55.077Z,1027.65
2017-05-17T08:23:56.909Z,1027.67
2017-05-17T08:24:58.767Z,1027.73
2017-05-17T08:26:00.598Z,1027.73
2017-05-17T08:27:02.433Z,1027.77
2017-05-17T08:28:04.688Z,1027.77
2017-05-17T08:29:06.550Z,1027.75
2017-05-17T08:30:08.379Z,1027.77
2017-05-17T08:31:10.216Z,1027.73
2017-05-17T08:32:12.047Z,1027.76
2017-05-17T08:33:13.904Z,1027.74
2017-05-17T08:34:15.760Z,1027.74
2017-05-17T08:35:17.621Z,1027.72
2017-05-17T08:36:19.453Z,1027.75
2017-05-17T08:37:21.317Z,1027.72
2017-05-17T08:38:23.571Z,1027.76
2017-05-17T08:39:25.408Z,1027.74
2017-05-17T08:40:27.235Z,1027.76
2017-05-17T08:41:29.077Z,1027.70
2017-05-17T08:42:30.939Z,1027.72
2017-05-17T08:43:32.819Z,1027.70
2017-05-17T08:44:34.677Z,1027.71
2017-05-17T08:45:36.509Z,1027.70
2017-05-17T08:46:38.362Z,1027.69
2017-05-17T08:47:40.224Z,1027.68
2017-05-17T08:48:42.158Z,1027.68
2017-05-17T08:49:44.019Z,1027.67
2017-05-17T08:50:45.882Z,1027.64
2017-05-17T08:51:47.748Z,1027.59
2017-05-17T08:52:49.605Z,1027.57
2017-05-17T08:53:51.864Z,1027.54
2017-05-17T08:54:53.726Z,1027.56
2017-05-17T08:55:55.588Z,1027.54
2017-05-17T08:56:57.449Z,1027.54
2017-05-17T08:57:59.309Z,1027.51
2017-05-17T08:59:01.170Z,1027.57
2017-05-17T09:00:03.003Z,1027.54
2017-05-17T09:01:04.863Z,1027.54
2017-05-17T09:02:06.702Z,1027.49
2017-05-17T09:03:08.531Z,1027.48
2017-05-17T09:04:10.393Z,1027.51
2017-05-17T09:05:12.249Z,1027.49
2017-05-17T09:06:14.109Z,1027.48
2017-05-17T09:07:15.945Z,1027.47
2017-05-17T09:08:17.801Z,1027.46
2017-05-17T09:09:19.659Z,1027.49
2017-05-17T09:10:21.494Z,1027.45
2017-05-17T09:11:23.358Z,1027.40
2017-05-17T09:12:25.217Z,1027.34
2017-05-17T09:13:27.076Z,1027.37
2017-05-17T09:14:28.960Z,1027.35
2017-05-17T09:15:30.817Z,1027.31
2017-05-17T09:16:32.657Z,1027.35
2017-05-17T09:17:34.519Z,1027.34
2017-05-17T09:18:36.374Z,1027.35
2017-05-17T09:19:38.438Z,1027.42
2017-05-17T09:20:40.296Z,1027.45
2017-05-17T09:21:42.131Z,1027.42
2017-05-17T09:22:43.961Z,1027.41
2017-05-17T09:23:45.844Z,1027.40
2017-05-17T09:24:47.658Z,1027.36
2017-05-17T09:25:49.519Z,1027.37
2017-05-17T09:26:51.410Z,1027.39
2017-05-17T09:27:53.231Z,1027.34
2017-05-17T09:28:55.088Z,1027.38
2017-05-17T09:29:57.250Z,1027.36
2017-05-17T09:30:59.114Z,1027.40
2017-05-17T09:32:00.973Z,1027.34
2017-05-17T09:33:02.829Z,1027.36
2017-05-17T09:34:04.668Z,1027.32
2017-05-17T09:35:06.699Z,1027.34
2017-05-17T09:36:08.561Z,1027.34
2017-05-17T09:37:10.401Z,1027.33
2017-05-17T09:38:12.235Z,1027.34
2017-05-17T09:39:14.062Z,1027.34
2017-05-17T09:40:16.101Z,1027.30
2017-05-17T09:41:17.929Z,1027.32
2017-05-17T09:42:19.767Z,1027.31
2017-05-17T09:43:21.622Z,1027.33
2017-05-17T09:44:23.456Z,1027.29
2017-05-17T09:45:25.321Z,1027.30
2017-05-17T09:46:27.183Z,1027.31
2017-05-17T09:47:29.046Z,1027.29
2017-05-17T09:48:30.881Z,1027.28
2017-05-17T09:49:32.715Z,1027.24
2017-05-17T09:50:34.570Z,1027.24
2017-05-17T09:51:36.410Z,1027.19
2017-05-17T09:52:38.273Z,1027.20
2017-05-17T09:53:40.132Z,1027.18
2017-05-17T09:54:41.970Z,1027.17
2017-05-17T09:55:43.831Z,1027.16
2017-05-17T09:56:45.694Z,1027.11
2017-05-17T09:57:47.548Z,1027.11
2017-05-17T09:58:49.385Z,1027.08
2017-05-17T09:59:51.225Z,1027.07
2017-05-17T10:00:53.079Z,1027.04
2017-05-17T10:01:54.921Z,1027.00
2017-05-17T10:02:56.753Z,1026.94
2017-05-17T10:03:58.589Z,1026.91
2017-05-17T10:05:00.451Z,1026.89
2017-05-17T10:06:02.313Z,1026.87
2017-05-17T10:07:04.172Z,1026.87
2017-05-17T10:08:06.033Z,1026.83
2017-05-17T10:09:07.897Z,1026.81
2017-05-17T10:10:09.762Z,1026.77
2017-05-17T10:11:11.824Z,1026.74
2017-05-17T10:12:13.680Z,1026.71
2017-05-17T10:13:15.516Z,1026.65
2017-05-17T10:14:17.360Z,1026.60
2017-05-17T10:15:19.216Z,1026.51
2017-05-17T10:16:21.077Z,1026.48
2017-05-17T10:17:22.943Z,1026.42
2017-05-17T10:18:24.804Z,1026.37
2017-05-17T10:19:26.634Z,1026.36
2017-05-17T10:20:28.474Z,1026.31
2017-05-17T10:21:30.360Z,1026.26
2017-05-17T10:22:32.215Z,1026.23
2017-05-17T10:23:34.048Z,1026.25
2017-05-17T10:24:35.903Z,1026.18
2017-05-17T10:25:37.737Z,1026.19
2017-05-17T10:26:39.627Z,1026.19
2017-05-17T10:27:41.481Z,1026.18
2017-05-17T10:28:43.312Z,1026.14
2017-05-17T10:29:45.184Z,1026.13
2017-05-17T10:30:47.030Z,1026.14
2017-05-17T10:31:48.883Z,1026.14
2017-05-17T10:32:50.719Z,1026.10
2017-05-17T10:33:52.572Z,1026.03
2017-05-17T10:34:54.434Z,1026.04
2017-05-17T10:35:56.258Z,1025.98
2017-05-17T10:36:58.390Z,1026.00
2017-05-17T10:38:00.227Z,1025.94
2017-05-17T10:39:02.080Z,1025.96
2017-05-17T10:40:03.930Z,1025.94
2017-05-17T10:41:05.763Z,1025.85
2017-05-17T10:42:07.618Z,1025.88
2017-05-17T10:43:09.457Z,1025.87
2017-05-17T10:44:11.311Z,1025.87
2017-05-17T10:45:13.163Z,1025.84
2017-05-17T10:46:14.985Z,1025.79
2017-05-17T10:47:16.874Z,1025.81
2017-05-17T10:48:18.725Z,1025.83
2017-05-17T10:49:20.553Z,1025.83
2017-05-17T10:50:22.383Z,1025.81
2017-05-17T10:51:24.215Z,1025.79
2017-05-17T10:52:26.243Z,1025.79
2017-05-17T10:53:28.098Z,1025.76
2017-05-17T10:54:29.928Z,1025.73
2017-05-17T10:55:31.790Z,1025.69
2017-05-17T10:56:33.644Z,1025.66
2017-05-17T10:57:35.572Z,1025.66
2017-05-17T10:58:37.432Z,1025.62
2017-05-17T10:59:39.290Z,1025.60
2017-05-17T11:00:41.136Z,1025.57
2017-05-17T11:01:42.969Z,1025.53
2017-05-17T11:02:44.828Z,1025.54
2017-05-17T11:03:46.678Z,1025.54
2017-05-17T11:04:48.507Z,1025.52
2017-05-17T11:05:50.363Z,1025.54
2017-05-17T11:06:52.195Z,1025.53
2017-05-17T11:07:54.067Z,1025.48
2017-05-17T11:08:55.922Z,1025.48
2017-05-17T11:09:57.746Z,1025.52
2017-05-17T11:10:59.581Z,1025.49
2017-05-17T11:12:01.446Z,1025.46
2017-05-17T11:13:03.290Z,1025.45
2017-05-17T11:14:05.116Z,1025.47
2017-05-17T11:15:06.971Z,1025.46
2017-05-17T11:16:08.806Z,1025.46
2017-05-17T11:17:10.666Z,1025.44
2017-05-17T11:18:12.861Z,1025.43
2017-05-17T11:19:14.696Z,1025.43
2017-05-17T11:20:16.546Z,1025.39
2017-05-17T11:21:18.406Z,1025.37
2017-05-17T11:22:20.259Z,1025.36
2017-05-17T11:23:22.116Z,1025.30
2017-05-17T11:24:23.970Z,1025.35
2017-05-17T11:25:26.075Z,1025.37
2017-05-17T11:26:27.906Z,1025.32
2017-05-17T11:27:29.737Z,1025.30
2017-05-17T11:28:31.592Z,1025.27
2017-05-17T11:29:33.446Z,1025.24
2017-05-17T11:30:35.274Z,1025.26
2017-05-17T11:31:37.134Z,1025.22
2017-05-17T11:32:38.987Z,1025.23
2017-05-17T11:33:40.917Z,1025.27
2017-05-17T11:34:42.774Z,1025.21
2017-05-17T11:35:44.638Z,1025.17
2017-05-17T11:36:46.485Z,1025.18
2017-05-17T11:37:48.337Z,1025.16
2017-05-17T11:38:50.220Z,1025.17
2017-05-17T11:39:52.067Z,1025.15
2017-05-17T11:40:53.899Z,1025.13
2017-05-17T11:41:55.728Z,1025.12
2017-05-17T11:42:57.561Z,1025.07
2017-05-17T11:43:59.432Z,1025.07
2017-05-17T11:45:01.293Z,1025.08
2017-05-17T11:46:03.597Z,1025.04
2017-05-17T11:47:05.428Z,1025.07
2017-05-17T11:48:07.285Z,1025.09
2017-05-17T11:49:09.137Z,1025.02
2017-05-17T11:50:10.993Z,1025.04
2017-05-17T11:51:12.850Z,1025.01
2017-05-17T11:52:14.680Z,1025.01
2017-05-17T11:53:16.531Z,1024.98
2017-05-17T11:54:18.388Z,1024.97
2017-05-17T11:55:20.214Z,1024.96
2017-05-17T11:56:22.182Z,1024.90
2017-05-17T11:57:24.109Z,1024.91
2017-05-17T11:58:25.957Z,1024.94
2017-05-17T11:59:27.809Z,1024.91
2017-05-17T12:00:29.642Z,1024.91
2017-05-17T12:01:31.605Z,1024.91
2017-05-17T12:02:33.457Z,1024.91
2017-05-17T12:03:35.319Z,1024.93
2017-05-17T12:04:37.259Z,1024.90
2017-05-17T12:05:39.186Z,1024.87
2017-05-17T12:06:41.033Z,1024.86
2017-05-17T12:07:42.863Z,1024.86
2017-05-17T12:08:44.720Z,1024.83
2017-05-17T12:09:46.947Z,1024.85
2017-05-17T12:10:48.799Z,1024.81
2017-05-17T12:11:50.629Z,1024.82
2017-05-17T12:12:52.460Z,1024.85
2017-05-17T12:13:54.327Z,1024.83
2017-05-17T12:14:56.196Z,1024.82
2017-05-17T12:15:58.057Z,1024.79
2017-05-17T12:16:59.905Z,1024.81
2017-05-17T12:18:01.764Z,1024.80
2017-05-17T12:19:03.617Z,1024.81
2017-05-17T12:20:05.474Z,1024.77
2017-05-17T12:21:07.328Z,1024.76
2017-05-17T12:22:09.177Z,1024.76
2017-05-17T12:23:11.010Z,1024.77
2017-05-17T12:24:12.867Z,1024.76
2017-05-17T12:25:14.720Z,1024.74
2017-05-17T12:26:16.572Z,1024.79
2017-05-17T12:27:18.409Z,1024.74
2017-05-17T12:28:20.262Z,1024.72